sensor_id;sensor_type;location;lat;lon;timestamp;temperature;humidity
3202;DHT22;34843;48.744;8.958;2023-04-03T00:00:53;2.60;99.90
3202;DHT22;34843;48.744;8.958;2023-04-03T00:03:19;2.60;99.90
3202;DHT22;34843;48.744;8.958;2023-04-03T00:05:45;2.60;99.90
3202;DHT22;34843;48.744;8.958;2023-04-03T00:08:11;2.70;99.90
3202;DHT22;34843;48.744;8.958;2023-04-03T00:10:37;2.60;99.90
3202;DHT22;34843;48.744;8.958;2023-04-03T00:13:04;2.60;99.90
3202;DHT22;34843;48.744;8.958;2023-04-03T00:15:29;2.60;99.90
3202;DHT22;34843;48.744;8.958;2023-04-03T00:17:55;2.60;99.90
3202;DHT22;34843;48.744;8.958;2023-04-03T00:20:20;2.60;99.90
3202;DHT22;34843;48.744;8.958;2023-04-03T00:22:46;2.60;99.90
3202;DHT22;34843;48.744;8.958;2023-04-03T00:25:12;2.60;99.90
3202;DHT22;34843;48.744;8.958;2023-04-03T00:27:38;2.50;99.90
3202;DHT22;34843;48.744;8.958;2023-04-03T00:30:05;2.50;99.90
3202;DHT22;34843;48.744;8.958;2023-04-03T00:32:32;2.50;99.90
3202;DHT22;34843;48.744;8.958;2023-04-03T00:34:57;2.50;99.90
3202;DHT22;34843;48.744;8.958;2023-04-03T00:37:23;2.40;99.90
3202;DHT22;34843;48.744;8.958;2023-04-03T00:39:48;2.40;99.90
3202;DHT22;34843;48.744;8.958;2023-04-03T00:42:14;2.40;99.90
3202;DHT22;34843;48.744;8.958;2023-04-03T00:47:08;2.40;99.90
3202;DHT22;34843;48.744;8.958;2023-04-03T00:49:34;2.30;99.90
3202;DHT22;34843;48.744;8.958;2023-04-03T00:52:01;2.30;99.90
3202;DHT22;34843;48.744;8.958;2023-04-03T00:54:27;2.30;99.90
3202;DHT22;34843;48.744;8.958;2023-04-03T00:56:53;2.30;99.90
3202;DHT22;34843;48.744;8.958;2023-04-03T00:59:25;2.30;99.90
3202;DHT22;34843;48.744;8.958;2023-04-03T01:01:55;2.30;99.90
3202;DHT22;34843;48.744;8.958;2023-04-03T01:04:33;2.30;99.90
3202;DHT22;34843;48.744;8.958;2023-04-03T01:07:04;2.30;99.90
3202;DHT22;34843;48.744;8.958;2023-04-03T01:09:31;2.30;99.90
3202;DHT22;34843;48.744;8.958;2023-04-03T01:12:19;2.30;99.90
3202;DHT22;34843;48.744;8.958;2023-04-03T01:14:48;2.30;99.90
3202;DHT22;34843;48.744;8.958;2023-04-03T01:25:50;2.20;99.90
3202;DHT22;34843;48.744;8.958;2023-04-03T01:28:28;2.20;99.90
3202;DHT22;34843;48.744;8.958;2023-04-03T01:33:37;2.20;99.90
3202;DHT22;34843;48.744;8.958;2023-04-03T01:36:03;2.20;99.90
3202;DHT22;34843;48.744;8.958;2023-04-03T01:38:29;2.20;99.90
3202;DHT22;34843;48.744;8.958;2023-04-03T01:40:55;2.20;99.90
3202;DHT22;34843;48.744;8.958;2023-04-03T01:43:21;2.30;99.90
3202;DHT22;34843;48.744;8.958;2023-04-03T01:45:46;2.20;99.90
3202;DHT22;34843;48.744;8.958;2023-04-03T01:48:13;2.20;99.90
3202;DHT22;34843;48.744;8.958;2023-04-03T01:50:39;2.20;99.90
3202;DHT22;34843;48.744;8.958;2023-04-03T01:53:04;2.20;99.90
3202;DHT22;34843;48.744;8.958;2023-04-03T01:55:30;2.20;99.90
3202;DHT22;34843;48.744;8.958;2023-04-03T01:57:55;2.20;99.90
3202;DHT22;34843;48.744;8.958;2023-04-03T02:00:21;2.20;99.90
3202;DHT22;34843;48.744;8.958;2023-04-03T02:02:46;2.10;99.90
3202;DHT22;34843;48.744;8.958;2023-04-03T02:05:12;2.10;99.90
3202;DHT22;34843;48.744;8.958;2023-04-03T02:07:37;2.10;99.90
3202;DHT22;34843;48.744;8.958;2023-04-03T02:10:03;2.20;99.90
3202;DHT22;34843;48.744;8.958;2023-04-03T02:12:29;2.10;99.90
3202;DHT22;34843;48.744;8.958;2023-04-03T02:14:54;2.20;99.90
3202;DHT22;34843;48.744;8.958;2023-04-03T02:17:20;2.10;99.90
3202;DHT22;34843;48.744;8.958;2023-04-03T02:19:45;2.20;99.90
3202;DHT22;34843;48.744;8.958;2023-04-03T02:22:11;2.20;99.90
3202;DHT22;34843;48.744;8.958;2023-04-03T02:24:36;2.20;99.90
3202;DHT22;34843;48.744;8.958;2023-04-03T02:27:04;2.20;99.90
3202;DHT22;34843;48.744;8.958;2023-04-03T02:29:30;2.20;99.90
3202;DHT22;34843;48.744;8.958;2023-04-03T02:31:55;2.30;99.90
3202;DHT22;34843;48.744;8.958;2023-04-03T02:34:21;2.30;99.90
3202;DHT22;34843;48.744;8.958;2023-04-03T02:36:46;2.40;99.90
3202;DHT22;34843;48.744;8.958;2023-04-03T02:39:12;2.40;99.90
3202;DHT22;34843;48.744;8.958;2023-04-03T02:41:37;2.30;99.90
3202;DHT22;34843;48.744;8.958;2023-04-03T02:44:05;2.30;99.90
3202;DHT22;34843;48.744;8.958;2023-04-03T02:46:31;2.40;99.90
3202;DHT22;34843;48.744;8.958;2023-04-03T02:48:57;2.40;99.90
3202;DHT22;34843;48.744;8.958;2023-04-03T02:51:23;2.40;99.90
3202;DHT22;34843;48.744;8.958;2023-04-03T02:53:49;2.40;99.90
3202;DHT22;34843;48.744;8.958;2023-04-03T02:56:15;2.40;99.90
3202;DHT22;34843;48.744;8.958;2023-04-03T02:58:40;2.40;99.90
3202;DHT22;34843;48.744;8.958;2023-04-03T03:01:06;2.40;99.90
3202;DHT22;34843;48.744;8.958;2023-04-03T03:03:31;2.30;99.90
3202;DHT22;34843;48.744;8.958;2023-04-03T03:06:11;2.30;99.90
3202;DHT22;34843;48.744;8.958;2023-04-03T03:08:37;2.30;99.90
3202;DHT22;34843;48.744;8.958;2023-04-03T03:11:04;2.30;99.90
3202;DHT22;34843;48.744;8.958;2023-04-03T03:13:30;2.30;99.90
3202;DHT22;34843;48.744;8.958;2023-04-03T03:15:56;2.30;99.90
3202;DHT22;34843;48.744;8.958;2023-04-03T03:18:22;2.30;99.90
3202;DHT22;34843;48.744;8.958;2023-04-03T03:20:54;2.30;99.90
3202;DHT22;34843;48.744;8.958;2023-04-03T03:23:22;2.30;99.90
3202;DHT22;34843;48.744;8.958;2023-04-03T03:25:48;2.30;99.90
3202;DHT22;34843;48.744;8.958;2023-04-03T03:28:13;2.30;99.90
3202;DHT22;34843;48.744;8.958;2023-04-03T03:30:39;2.30;99.90
3202;DHT22;34843;48.744;8.958;2023-04-03T03:33:04;2.30;99.90
3202;DHT22;34843;48.744;8.958;2023-04-03T03:35:30;2.30;99.90
3202;DHT22;34843;48.744;8.958;2023-04-03T03:37:55;2.30;99.90
3202;DHT22;34843;48.744;8.958;2023-04-03T03:40:21;2.30;99.90
3202;DHT22;34843;48.744;8.958;2023-04-03T03:42:47;2.30;99.90
3202;DHT22;34843;48.744;8.958;2023-04-03T03:45:13;2.30;99.90
3202;DHT22;34843;48.744;8.958;2023-04-03T03:47:38;2.30;99.90
3202;DHT22;34843;48.744;8.958;2023-04-03T03:50:05;2.30;99.90
3202;DHT22;34843;48.744;8.958;2023-04-03T03:52:31;2.30;99.90
3202;DHT22;34843;48.744;8.958;2023-04-03T03:54:57;2.30;99.90
3202;DHT22;34843;48.744;8.958;2023-04-03T03:57:22;2.30;99.90
3202;DHT22;34843;48.744;8.958;2023-04-03T03:59:48;2.30;99.90
3202;DHT22;34843;48.744;8.958;2023-04-03T04:02:14;2.30;99.90
3202;DHT22;34843;48.744;8.958;2023-04-03T04:04:40;2.30;99.90
3202;DHT22;34843;48.744;8.958;2023-04-03T04:07:05;2.30;99.90
3202;DHT22;34843;48.744;8.958;2023-04-03T04:09:31;2.30;99.90
3202;DHT22;34843;48.744;8.958;2023-04-03T04:11:56;2.40;99.90
3202;DHT22;34843;48.744;8.958;2023-04-03T04:14:22;2.30;99.90
3202;DHT22;34843;48.744;8.958;2023-04-03T04:16:48;2.30;99.90
3202;DHT22;34843;48.744;8.958;2023-04-03T04:19:13;2.30;99.90
3202;DHT22;34843;48.744;8.958;2023-04-03T04:21:39;2.30;99.90
3202;DHT22;34843;48.744;8.958;2023-04-03T04:24:05;2.20;99.90
3202;DHT22;34843;48.744;8.958;2023-04-03T04:26:31;2.30;99.90
3202;DHT22;34843;48.744;8.958;2023-04-03T04:28:56;2.30;99.90
3202;DHT22;34843;48.744;8.958;2023-04-03T04:31:22;2.40;99.90
3202;DHT22;34843;48.744;8.958;2023-04-03T04:33:48;2.30;99.90
3202;DHT22;34843;48.744;8.958;2023-04-03T04:36:13;2.40;99.90
3202;DHT22;34843;48.744;8.958;2023-04-03T04:38:40;2.30;99.90
3202;DHT22;34843;48.744;8.958;2023-04-03T04:41:06;2.30;99.90
3202;DHT22;34843;48.744;8.958;2023-04-03T04:43:32;2.30;99.90
3202;DHT22;34843;48.744;8.958;2023-04-03T04:48:27;2.40;99.90
3202;DHT22;34843;48.744;8.958;2023-04-03T04:50:52;2.40;99.90
3202;DHT22;34843;48.744;8.958;2023-04-03T04:53:18;2.40;99.90
3202;DHT22;34843;48.744;8.958;2023-04-03T04:55:43;2.40;99.90
3202;DHT22;34843;48.744;8.958;2023-04-03T04:58:09;2.40;99.90
3202;DHT22;34843;48.744;8.958;2023-04-03T05:00:34;2.40;99.90
3202;DHT22;34843;48.744;8.958;2023-04-03T05:03:00;2.40;99.90
3202;DHT22;34843;48.744;8.958;2023-04-03T05:05:25;2.40;99.90
3202;DHT22;34843;48.744;8.958;2023-04-03T05:07:51;2.40;99.90
3202;DHT22;34843;48.744;8.958;2023-04-03T05:10:16;2.40;99.90
3202;DHT22;34843;48.744;8.958;2023-04-03T05:12:42;2.40;99.90
3202;DHT22;34843;48.744;8.958;2023-04-03T05:15:08;2.40;99.90
3202;DHT22;34843;48.744;8.958;2023-04-03T05:17:33;2.40;99.90
3202;DHT22;34843;48.744;8.958;2023-04-03T05:19:59;2.40;99.90
3202;DHT22;34843;48.744;8.958;2023-04-03T05:22:25;2.40;99.90
3202;DHT22;34843;48.744;8.958;2023-04-03T05:24:50;2.40;99.90
3202;DHT22;34843;48.744;8.958;2023-04-03T05:27:16;2.40;99.90
3202;DHT22;34843;48.744;8.958;2023-04-03T05:29:42;2.50;99.90
3202;DHT22;34843;48.744;8.958;2023-04-03T05:32:09;2.50;99.90
3202;DHT22;34843;48.744;8.958;2023-04-03T05:34:35;2.60;99.90
3202;DHT22;34843;48.744;8.958;2023-04-03T05:37:00;2.60;99.90
3202;DHT22;34843;48.744;8.958;2023-04-03T05:39:28;2.70;99.90
3202;DHT22;34843;48.744;8.958;2023-04-03T05:41:54;2.70;99.90
3202;DHT22;34843;48.744;8.958;2023-04-03T05:44:19;2.70;99.90
3202;DHT22;34843;48.744;8.958;2023-04-03T05:46:45;2.80;99.90
3202;DHT22;34843;48.744;8.958;2023-04-03T05:49:10;2.90;99.90
3202;DHT22;34843;48.744;8.958;2023-04-03T05:51:37;3.10;99.90
3202;DHT22;34843;48.744;8.958;2023-04-03T05:54:10;3.20;99.90
3202;DHT22;34843;48.744;8.958;2023-04-03T05:56:37;3.20;99.90
3202;DHT22;34843;48.744;8.958;2023-04-03T05:59:02;3.20;99.90
3202;DHT22;34843;48.744;8.958;2023-04-03T06:01:28;3.20;99.90
3202;DHT22;34843;48.744;8.958;2023-04-03T06:03:53;3.80;99.90
3202;DHT22;34843;48.744;8.958;2023-04-03T06:06:19;4.40;99.90
3202;DHT22;34843;48.744;8.958;2023-04-03T06:08:45;6.10;99.90
3202;DHT22;34843;48.744;8.958;2023-04-03T06:11:11;7.30;99.90
3202;DHT22;34843;48.744;8.958;2023-04-03T06:13:37;7.50;99.90
3202;DHT22;34843;48.744;8.958;2023-04-03T06:16:04;6.50;99.90
3202;DHT22;34843;48.744;8.958;2023-04-03T06:18:29;5.60;99.90
3202;DHT22;34843;48.744;8.958;2023-04-03T06:20:55;5.30;99.90
3202;DHT22;34843;48.744;8.958;2023-04-03T06:23:21;5.80;99.90
3202;DHT22;34843;48.744;8.958;2023-04-03T06:25:46;6.00;99.90
3202;DHT22;34843;48.744;8.958;2023-04-03T06:28:12;5.60;99.90
3202;DHT22;34843;48.744;8.958;2023-04-03T06:30:38;5.40;99.90
3202;DHT22;34843;48.744;8.958;2023-04-03T06:33:03;5.00;99.90
3202;DHT22;34843;48.744;8.958;2023-04-03T06:35:29;4.70;99.90
3202;DHT22;34843;48.744;8.958;2023-04-03T06:37:55;4.30;99.90
3202;DHT22;34843;48.744;8.958;2023-04-03T06:40:23;4.40;99.90
3202;DHT22;34843;48.744;8.958;2023-04-03T06:42:49;4.40;99.90
3202;DHT22;34843;48.744;8.958;2023-04-03T06:45:15;4.30;99.90
3202;DHT22;34843;48.744;8.958;2023-04-03T06:47:41;4.40;99.90
3202;DHT22;34843;48.744;8.958;2023-04-03T06:50:06;4.40;99.90
3202;DHT22;34843;48.744;8.958;2023-04-03T06:52:34;4.30;99.90
3202;DHT22;34843;48.744;8.958;2023-04-03T06:54:59;4.40;99.90
3202;DHT22;34843;48.744;8.958;2023-04-03T06:57:25;4.70;99.90
3202;DHT22;34843;48.744;8.958;2023-04-03T06:59:51;4.50;99.90
3202;DHT22;34843;48.744;8.958;2023-04-03T07:02:17;4.60;99.90
3202;DHT22;34843;48.744;8.958;2023-04-03T07:04:42;4.70;99.90
3202;DHT22;34843;48.744;8.958;2023-04-03T07:07:08;4.70;99.90
3202;DHT22;34843;48.744;8.958;2023-04-03T07:09:34;4.60;99.90
3202;DHT22;34843;48.744;8.958;2023-04-03T07:11:59;4.60;99.90
3202;DHT22;34843;48.744;8.958;2023-04-03T07:14:25;4.60;99.90
3202;DHT22;34843;48.744;8.958;2023-04-03T07:16:51;4.40;99.90
3202;DHT22;34843;48.744;8.958;2023-04-03T07:19:17;4.30;99.90
3202;DHT22;34843;48.744;8.958;2023-04-03T07:21:44;4.30;99.90
3202;DHT22;34843;48.744;8.958;2023-04-03T07:24:10;4.40;99.90
3202;DHT22;34843;48.744;8.958;2023-04-03T07:26:35;4.30;99.90
3202;DHT22;34843;48.744;8.958;2023-04-03T07:29:01;4.50;99.90
3202;DHT22;34843;48.744;8.958;2023-04-03T07:31:27;4.50;99.90
3202;DHT22;34843;48.744;8.958;2023-04-03T07:33:52;4.60;99.90
3202;DHT22;34843;48.744;8.958;2023-04-03T07:36:20;4.70;99.90
3202;DHT22;34843;48.744;8.958;2023-04-03T07:38:45;4.70;99.90
3202;DHT22;34843;48.744;8.958;2023-04-03T07:41:14;4.90;99.90
3202;DHT22;34843;48.744;8.958;2023-04-03T07:43:40;5.00;99.90
3202;DHT22;34843;48.744;8.958;2023-04-03T07:46:07;5.00;99.90
3202;DHT22;34843;48.744;8.958;2023-04-03T07:48:33;4.90;99.90
3202;DHT22;34843;48.744;8.958;2023-04-03T07:51:00;5.00;99.90
3202;DHT22;34843;48.744;8.958;2023-04-03T07:53:27;5.20;99.90
3202;DHT22;34843;48.744;8.958;2023-04-03T07:55:52;5.10;99.90
3202;DHT22;34843;48.744;8.958;2023-04-03T07:58:21;5.00;99.90
3202;DHT22;34843;48.744;8.958;2023-04-03T08:00:46;5.10;99.90
3202;DHT22;34843;48.744;8.958;2023-04-03T08:03:13;5.30;99.90
3202;DHT22;34843;48.744;8.958;2023-04-03T08:05:44;5.50;99.90
3202;DHT22;34843;48.744;8.958;2023-04-03T08:08:12;5.30;99.90
3202;DHT22;34843;48.744;8.958;2023-04-03T08:10:38;5.10;99.90
3202;DHT22;34843;48.744;8.958;2023-04-03T08:13:04;5.20;99.90
3202;DHT22;34843;48.744;8.958;2023-04-03T08:15:30;5.40;99.90
3202;DHT22;34843;48.744;8.958;2023-04-03T08:17:56;5.40;99.90
3202;DHT22;34843;48.744;8.958;2023-04-03T08:20:22;5.60;99.90
3202;DHT22;34843;48.744;8.958;2023-04-03T08:22:47;5.60;99.90
3202;DHT22;34843;48.744;8.958;2023-04-03T08:25:13;5.10;99.90
3202;DHT22;34843;48.744;8.958;2023-04-03T08:27:39;5.20;99.90
3202;DHT22;34843;48.744;8.958;2023-04-03T08:30:05;5.20;99.90
3202;DHT22;34843;48.744;8.958;2023-04-03T08:32:33;5.50;99.90
3202;DHT22;34843;48.744;8.958;2023-04-03T08:35:00;5.50;99.90
3202;DHT22;34843;48.744;8.958;2023-04-03T08:37:25;5.70;99.90
3202;DHT22;34843;48.744;8.958;2023-04-03T08:39:52;5.60;99.90
3202;DHT22;34843;48.744;8.958;2023-04-03T08:42:49;5.60;99.90
3202;DHT22;34843;48.744;8.958;2023-04-03T08:45:27;5.70;99.90
3202;DHT22;34843;48.744;8.958;2023-04-03T08:48:03;5.90;99.90
3202;DHT22;34843;48.744;8.958;2023-04-03T08:50:44;5.90;99.90
3202;DHT22;34843;48.744;8.958;2023-04-03T08:53:18;6.10;99.90
3202;DHT22;34843;48.744;8.958;2023-04-03T08:55:49;6.30;99.90
3202;DHT22;34843;48.744;8.958;2023-04-03T09:03:20;6.00;99.90
3202;DHT22;34843;48.744;8.958;2023-04-03T09:06:02;6.00;99.90
3202;DHT22;34843;48.744;8.958;2023-04-03T09:14:04;6.10;99.90
3202;DHT22;34843;48.744;8.958;2023-04-03T09:21:57;5.70;99.90
3202;DHT22;34843;48.744;8.958;2023-04-03T09:24:24;5.70;99.90
3202;DHT22;34843;48.744;8.958;2023-04-03T09:26:59;5.90;99.90
3202;DHT22;34843;48.744;8.958;2023-04-03T09:29:27;6.30;99.90
3202;DHT22;34843;48.744;8.958;2023-04-03T09:31:58;6.60;99.90
3202;DHT22;34843;48.744;8.958;2023-04-03T09:34:32;6.70;99.90
3202;DHT22;34843;48.744;8.958;2023-04-03T09:37:00;6.70;99.90
3202;DHT22;34843;48.744;8.958;2023-04-03T09:39:32;6.60;99.90
3202;DHT22;34843;48.744;8.958;2023-04-03T09:42:02;6.50;99.90
3202;DHT22;34843;48.744;8.958;2023-04-03T09:44:33;6.40;99.90
3202;DHT22;34843;48.744;8.958;2023-04-03T09:47:00;6.40;99.90
3202;DHT22;34843;48.744;8.958;2023-04-03T09:49:42;6.50;99.90
3202;DHT22;34843;48.744;8.958;2023-04-03T09:52:24;6.80;99.90
3202;DHT22;34843;48.744;8.958;2023-04-03T09:54:50;7.10;99.90
3202;DHT22;34843;48.744;8.958;2023-04-03T09:57:16;7.00;99.90
3202;DHT22;34843;48.744;8.958;2023-04-03T09:59:59;7.00;99.90
3202;DHT22;34843;48.744;8.958;2023-04-03T10:02:39;6.60;99.90
3202;DHT22;34843;48.744;8.958;2023-04-03T10:08:15;6.40;99.90
3202;DHT22;34843;48.744;8.958;2023-04-03T10:10:47;6.60;99.90
3202;DHT22;34843;48.744;8.958;2023-04-03T10:13:14;6.40;99.90
3202;DHT22;34843;48.744;8.958;2023-04-03T10:15:56;6.60;99.90
3202;DHT22;34843;48.744;8.958;2023-04-03T10:18:39;6.60;99.90
3202;DHT22;34843;48.744;8.958;2023-04-03T10:23:53;6.30;99.90
3202;DHT22;34843;48.744;8.958;2023-04-03T10:27:25;6.10;99.90
3202;DHT22;34843;48.744;8.958;2023-04-03T10:29:49;6.00;99.90
3202;DHT22;34843;48.744;8.958;2023-04-03T10:32:26;5.50;99.90
3202;DHT22;34843;48.744;8.958;2023-04-03T10:35:15;5.50;99.90
3202;DHT22;34843;48.744;8.958;2023-04-03T10:37:54;5.50;99.90
3202;DHT22;34843;48.744;8.958;2023-04-03T10:40:29;5.50;99.90
3202;DHT22;34843;48.744;8.958;2023-04-03T10:46:13;5.60;99.90
3202;DHT22;34843;48.744;8.958;2023-04-03T10:51:19;5.60;99.90
3202;DHT22;34843;48.744;8.958;2023-04-03T10:56:44;5.60;99.90
3202;DHT22;34843;48.744;8.958;2023-04-03T11:01:46;5.60;99.90
3202;DHT22;34843;48.744;8.958;2023-04-03T11:04:15;5.60;99.90
3202;DHT22;34843;48.744;8.958;2023-04-03T11:06:47;5.80;99.90
3202;DHT22;34843;48.744;8.958;2023-04-03T11:09:24;5.90;99.90
3202;DHT22;34843;48.744;8.958;2023-04-03T11:11:55;5.90;99.90
3202;DHT22;34843;48.744;8.958;2023-04-03T11:14:34;5.80;99.90
3202;DHT22;34843;48.744;8.958;2023-04-03T11:20:22;5.60;99.90
3202;DHT22;34843;48.744;8.958;2023-04-03T11:23:08;5.40;99.90
3202;DHT22;34843;48.744;8.958;2023-04-03T11:25:39;5.40;99.90
3202;DHT22;34843;48.744;8.958;2023-04-03T11:28:12;5.70;99.90
3202;DHT22;34843;48.744;8.958;2023-04-03T11:30:49;5.90;99.90
3202;DHT22;34843;48.744;8.958;2023-04-03T11:35:56;5.70;99.90
3202;DHT22;34843;48.744;8.958;2023-04-03T11:38:33;5.70;99.90
3202;DHT22;34843;48.744;8.958;2023-04-03T11:41:02;5.70;99.90
3202;DHT22;34843;48.744;8.958;2023-04-03T11:43:30;5.70;99.90
3202;DHT22;34843;48.744;8.958;2023-04-03T11:53:39;5.80;99.90
3202;DHT22;34843;48.744;8.958;2023-04-03T12:01:57;5.80;99.90
3202;DHT22;34843;48.744;8.958;2023-04-03T12:04:26;5.60;99.90
3202;DHT22;34843;48.744;8.958;2023-04-03T12:07:08;5.60;99.90
3202;DHT22;34843;48.744;8.958;2023-04-03T12:12:31;5.60;99.90
3202;DHT22;34843;48.744;8.958;2023-04-03T12:15:22;5.70;99.90
3202;DHT22;34843;48.744;8.958;2023-04-03T12:17:49;5.80;99.90
3202;DHT22;34843;48.744;8.958;2023-04-03T12:20:56;6.10;99.90
3202;DHT22;34843;48.744;8.958;2023-04-03T12:23:34;6.40;99.90
3202;DHT22;34843;48.744;8.958;2023-04-03T12:26:26;6.10;99.90
3202;DHT22;34843;48.744;8.958;2023-04-03T12:28:53;6.10;99.90
3202;DHT22;34843;48.744;8.958;2023-04-03T12:31:20;6.20;99.90
3202;DHT22;34843;48.744;8.958;2023-04-03T12:34:12;6.50;99.90
3202;DHT22;34843;48.744;8.958;2023-04-03T12:36:58;6.40;99.90
3202;DHT22;34843;48.744;8.958;2023-04-03T12:39:40;6.20;99.90
3202;DHT22;34843;48.744;8.958;2023-04-03T12:45:22;6.10;99.90
3202;DHT22;34843;48.744;8.958;2023-04-03T12:47:51;6.30;99.90
3202;DHT22;34843;48.744;8.958;2023-04-03T12:50:30;6.40;99.90
3202;DHT22;34843;48.744;8.958;2023-04-03T12:53:03;6.40;99.90
3202;DHT22;34843;48.744;8.958;2023-04-03T12:55:29;6.50;99.90
3202;DHT22;34843;48.744;8.958;2023-04-03T12:57:54;6.50;99.90
3202;DHT22;34843;48.744;8.958;2023-04-03T13:00:33;6.40;99.90
3202;DHT22;34843;48.744;8.958;2023-04-03T13:03:05;6.40;99.90
3202;DHT22;34843;48.744;8.958;2023-04-03T13:05:31;6.60;99.90
3202;DHT22;34843;48.744;8.958;2023-04-03T13:08:00;6.70;99.90
3202;DHT22;34843;48.744;8.958;2023-04-03T13:10:28;6.70;99.90
3202;DHT22;34843;48.744;8.958;2023-04-03T13:12:57;6.90;99.90
3202;DHT22;34843;48.744;8.958;2023-04-03T13:17:51;6.40;99.90
3202;DHT22;34843;48.744;8.958;2023-04-03T13:20:26;6.20;99.90
3202;DHT22;34843;48.744;8.958;2023-04-03T13:23:07;6.10;99.90
3202;DHT22;34843;48.744;8.958;2023-04-03T13:25:36;6.10;99.90
3202;DHT22;34843;48.744;8.958;2023-04-03T13:28:04;6.20;99.90
3202;DHT22;34843;48.744;8.958;2023-04-03T13:30:36;6.20;99.90
3202;DHT22;34843;48.744;8.958;2023-04-03T13:33:18;6.20;99.90
3202;DHT22;34843;48.744;8.958;2023-04-03T13:35:46;6.40;99.90
3202;DHT22;34843;48.744;8.958;2023-04-03T13:40:51;6.60;99.90
3202;DHT22;34843;48.744;8.958;2023-04-03T13:43:21;6.70;99.90
3202;DHT22;34843;48.744;8.958;2023-04-03T13:46:03;6.60;99.90
3202;DHT22;34843;48.744;8.958;2023-04-03T13:48:36;6.60;99.90
3202;DHT22;34843;48.744;8.958;2023-04-03T13:51:05;6.70;99.90
3202;DHT22;34843;48.744;8.958;2023-04-03T13:53:34;7.00;99.90
3202;DHT22;34843;48.744;8.958;2023-04-03T13:56:13;7.30;99.90
3202;DHT22;34843;48.744;8.958;2023-04-03T13:58:53;7.60;99.90
3202;DHT22;34843;48.744;8.958;2023-04-03T14:01:22;7.70;99.90
3202;DHT22;34843;48.744;8.958;2023-04-03T14:03:58;7.30;99.90
3202;DHT22;34843;48.744;8.958;2023-04-03T14:06:24;7.20;99.90
3202;DHT22;34843;48.744;8.958;2023-04-03T14:08:50;7.10;99.90
3202;DHT22;34843;48.744;8.958;2023-04-03T14:11:16;7.00;99.90
3202;DHT22;34843;48.744;8.958;2023-04-03T14:13:44;7.10;99.90
3202;DHT22;34843;48.744;8.958;2023-04-03T14:16:19;7.00;99.90
3202;DHT22;34843;48.744;8.958;2023-04-03T14:18:47;7.20;99.90
3202;DHT22;34843;48.744;8.958;2023-04-03T14:21:14;7.10;99.90
3202;DHT22;34843;48.744;8.958;2023-04-03T14:23:40;7.20;99.90
3202;DHT22;34843;48.744;8.958;2023-04-03T14:26:12;7.20;99.90
3202;DHT22;34843;48.744;8.958;2023-04-03T14:28:39;7.20;99.90
3202;DHT22;34843;48.744;8.958;2023-04-03T14:31:06;7.30;99.90
3202;DHT22;34843;48.744;8.958;2023-04-03T14:33:32;7.30;99.90
3202;DHT22;34843;48.744;8.958;2023-04-03T14:36:00;7.10;99.90
3202;DHT22;34843;48.744;8.958;2023-04-03T14:38:30;6.90;99.90
3202;DHT22;34843;48.744;8.958;2023-04-03T14:40:56;6.90;99.90
3202;DHT22;34843;48.744;8.958;2023-04-03T14:43:22;7.00;99.90
3202;DHT22;34843;48.744;8.958;2023-04-03T14:45:49;7.00;99.90
3202;DHT22;34843;48.744;8.958;2023-04-03T14:48:23;6.90;99.90
3202;DHT22;34843;48.744;8.958;2023-04-03T14:50:51;6.70;99.90
3202;DHT22;34843;48.744;8.958;2023-04-03T14:53:17;6.80;99.90
3202;DHT22;34843;48.744;8.958;2023-04-03T14:55:45;6.80;99.90
3202;DHT22;34843;48.744;8.958;2023-04-03T14:58:16;6.70;99.90
3202;DHT22;34843;48.744;8.958;2023-04-03T15:00:43;6.80;99.90
3202;DHT22;34843;48.744;8.958;2023-04-03T15:03:19;6.70;99.90
3202;DHT22;34843;48.744;8.958;2023-04-03T15:05:46;6.40;99.90
3202;DHT22;34843;48.744;8.958;2023-04-03T15:08:23;6.30;99.90
3202;DHT22;34843;48.744;8.958;2023-04-03T15:10:50;6.10;99.90
3202;DHT22;34843;48.744;8.958;2023-04-03T15:13:18;5.80;99.90
3202;DHT22;34843;48.744;8.958;2023-04-03T15:15:44;6.70;99.90
3202;DHT22;34843;48.744;8.958;2023-04-03T15:18:20;5.80;99.90
3202;DHT22;34843;48.744;8.958;2023-04-03T15:20:47;6.10;99.90
3202;DHT22;34843;48.744;8.958;2023-04-03T15:23:14;6.30;99.90
3202;DHT22;34843;48.744;8.958;2023-04-03T15:25:44;6.60;99.90
3202;DHT22;34843;48.744;8.958;2023-04-03T15:28:28;6.90;99.90
3202;DHT22;34843;48.744;8.958;2023-04-03T15:30:54;6.90;99.90
3202;DHT22;34843;48.744;8.958;2023-04-03T15:33:19;6.90;99.90
3202;DHT22;34843;48.744;8.958;2023-04-03T15:35:45;7.10;99.90
3202;DHT22;34843;48.744;8.958;2023-04-03T15:38:11;7.10;99.90
3202;DHT22;34843;48.744;8.958;2023-04-03T15:40:36;7.00;99.90
3202;DHT22;34843;48.744;8.958;2023-04-03T15:43:02;6.70;99.90
3202;DHT22;34843;48.744;8.958;2023-04-03T15:45:29;6.40;99.90
3202;DHT22;34843;48.744;8.958;2023-04-03T15:47:55;6.20;99.90
3202;DHT22;34843;48.744;8.958;2023-04-03T15:50:21;6.10;99.90
3202;DHT22;34843;48.744;8.958;2023-04-03T15:52:48;6.20;99.90
3202;DHT22;34843;48.744;8.958;2023-04-03T15:55:23;6.20;99.90
3202;DHT22;34843;48.744;8.958;2023-04-03T15:57:48;6.20;99.90
3202;DHT22;34843;48.744;8.958;2023-04-03T16:00:14;6.30;99.90
3202;DHT22;34843;48.744;8.958;2023-04-03T16:02:41;6.40;99.90
3202;DHT22;34843;48.744;8.958;2023-04-03T16:05:08;6.40;99.90
3202;DHT22;34843;48.744;8.958;2023-04-03T16:07:34;6.30;99.90
3202;DHT22;34843;48.744;8.958;2023-04-03T16:09:59;6.30;99.90
3202;DHT22;34843;48.744;8.958;2023-04-03T16:12:25;6.10;99.90
3202;DHT22;34843;48.744;8.958;2023-04-03T16:14:51;5.80;99.90
3202;DHT22;34843;48.744;8.958;2023-04-03T16:17:17;5.60;99.90
3202;DHT22;34843;48.744;8.958;2023-04-03T16:19:42;5.40;99.90
3202;DHT22;34843;48.744;8.958;2023-04-03T16:22:08;5.20;99.90
3202;DHT22;34843;48.744;8.958;2023-04-03T16:24:34;5.10;99.90
3202;DHT22;34843;48.744;8.958;2023-04-03T16:27:00;5.10;99.90
3202;DHT22;34843;48.744;8.958;2023-04-03T16:29:26;5.10;99.90
3202;DHT22;34843;48.744;8.958;2023-04-03T16:31:51;5.20;99.90
3202;DHT22;34843;48.744;8.958;2023-04-03T16:34:17;5.40;99.90
3202;DHT22;34843;48.744;8.958;2023-04-03T16:36:43;5.60;99.90
3202;DHT22;34843;48.744;8.958;2023-04-03T16:39:08;5.70;99.90
3202;DHT22;34843;48.744;8.958;2023-04-03T16:41:35;5.80;99.90
3202;DHT22;34843;48.744;8.958;2023-04-03T16:44:00;5.90;99.90
3202;DHT22;34843;48.744;8.958;2023-04-03T16:46:26;5.90;99.90
3202;DHT22;34843;48.744;8.958;2023-04-03T16:48:52;6.00;99.90
3202;DHT22;34843;48.744;8.958;2023-04-03T16:51:17;6.10;99.90
3202;DHT22;34843;48.744;8.958;2023-04-03T16:53:43;5.90;99.90
3202;DHT22;34843;48.744;8.958;2023-04-03T16:56:08;5.70;99.90
3202;DHT22;34843;48.744;8.958;2023-04-03T16:58:34;5.50;99.90
3202;DHT22;34843;48.744;8.958;2023-04-03T17:01:11;5.40;99.90
3202;DHT22;34843;48.744;8.958;2023-04-03T17:03:36;5.20;99.90
3202;DHT22;34843;48.744;8.958;2023-04-03T17:06:02;5.10;99.90
3202;DHT22;34843;48.744;8.958;2023-04-03T17:08:27;5.00;99.90
3202;DHT22;34843;48.744;8.958;2023-04-03T17:10:53;4.90;99.90
3202;DHT22;34843;48.744;8.958;2023-04-03T17:13:20;4.80;99.90
3202;DHT22;34843;48.744;8.958;2023-04-03T17:15:45;4.70;99.90
3202;DHT22;34843;48.744;8.958;2023-04-03T17:18:11;4.60;99.90
3202;DHT22;34843;48.744;8.958;2023-04-03T17:20:36;4.50;99.90
3202;DHT22;34843;48.744;8.958;2023-04-03T17:23:04;4.50;99.90
3202;DHT22;34843;48.744;8.958;2023-04-03T17:25:29;4.60;99.90
3202;DHT22;34843;48.744;8.958;2023-04-03T17:27:55;4.60;99.90
3202;DHT22;34843;48.744;8.958;2023-04-03T17:30:21;4.50;99.90